sensor_id;sensor_type;location;lat;lon;timestamp;temperature;humidity
29551;DHT22;16488;52.396;10.696;2023-04-15T00:00:08;7.40;99.90
29551;DHT22;16488;52.396;10.696;2023-04-15T00:02:34;7.40;99.90
29551;DHT22;16488;52.396;10.696;2023-04-15T00:05:01;7.30;99.90
29551;DHT22;16488;52.396;10.696;2023-04-15T00:07:27;7.30;99.90
29551;DHT22;16488;52.396;10.696;2023-04-15T00:09:54;7.40;99.90
29551;DHT22;16488;52.396;10.696;2023-04-15T00:12:22;7.40;99.90
29551;DHT22;16488;52.396;10.696;2023-04-15T00:14:48;7.30;99.90
29551;DHT22;16488;52.396;10.696;2023-04-15T00:17:14;7.30;99.90
29551;DHT22;16488;52.396;10.696;2023-04-15T00:19:40;7.40;99.90
29551;DHT22;16488;52.396;10.696;2023-04-15T00:22:06;7.30;99.90
29551;DHT22;16488;52.396;10.696;2023-04-15T00:24:32;7.30;99.90
29551;DHT22;16488;52.396;10.696;2023-04-15T00:26:58;7.30;99.90
29551;DHT22;16488;52.396;10.696;2023-04-15T00:29:24;7.20;99.90
29551;DHT22;16488;52.396;10.696;2023-04-15T00:31:50;7.30;99.90
29551;DHT22;16488;52.396;10.696;2023-04-15T00:34:16;7.30;99.90
29551;DHT22;16488;52.396;10.696;2023-04-15T00:36:42;7.40;99.90
29551;DHT22;16488;52.396;10.696;2023-04-15T00:39:08;7.30;99.90
29551;DHT22;16488;52.396;10.696;2023-04-15T00:41:33;7.30;99.90
29551;DHT22;16488;52.396;10.696;2023-04-15T00:44:00;7.30;99.90
29551;DHT22;16488;52.396;10.696;2023-04-15T00:46:28;7.30;99.90
29551;DHT22;16488;52.396;10.696;2023-04-15T00:48:55;7.20;99.90
29551;DHT22;16488;52.396;10.696;2023-04-15T00:51:20;7.20;99.90
29551;DHT22;16488;52.396;10.696;2023-04-15T00:53:46;7.30;99.90
29551;DHT22;16488;52.396;10.696;2023-04-15T00:56:12;7.30;99.90
29551;DHT22;16488;52.396;10.696;2023-04-15T00:58:38;7.20;99.90
29551;DHT22;16488;52.396;10.696;2023-04-15T01:01:04;7.20;99.90
29551;DHT22;16488;52.396;10.696;2023-04-15T01:03:30;7.20;99.90
29551;DHT22;16488;52.396;10.696;2023-04-15T01:05:55;7.20;99.90
29551;DHT22;16488;52.396;10.696;2023-04-15T01:08:30;7.20;99.90
29551;DHT22;16488;52.396;10.696;2023-04-15T01:10:57;7.20;99.90
29551;DHT22;16488;52.396;10.696;2023-04-15T01:13:23;7.20;99.90
29551;DHT22;16488;52.396;10.696;2023-04-15T01:15:50;7.20;99.90
29551;DHT22;16488;52.396;10.696;2023-04-15T01:18:17;7.30;99.90
29551;DHT22;16488;52.396;10.696;2023-04-15T01:20:43;7.20;99.90
29551;DHT22;16488;52.396;10.696;2023-04-15T01:23:09;7.20;99.90
29551;DHT22;16488;52.396;10.696;2023-04-15T01:25:35;7.20;99.90
29551;DHT22;16488;52.396;10.696;2023-04-15T01:28:02;7.30;99.90
29551;DHT22;16488;52.396;10.696;2023-04-15T01:30:27;7.20;99.90
29551;DHT22;16488;52.396;10.696;2023-04-15T01:32:53;7.20;99.90
29551;DHT22;16488;52.396;10.696;2023-04-15T01:35:19;7.20;99.90
29551;DHT22;16488;52.396;10.696;2023-04-15T01:37:46;7.10;99.90
29551;DHT22;16488;52.396;10.696;2023-04-15T01:40:12;7.10;99.90
29551;DHT22;16488;52.396;10.696;2023-04-15T01:42:38;7.10;99.90
29551;DHT22;16488;52.396;10.696;2023-04-15T01:45:04;7.20;99.90
29551;DHT22;16488;52.396;10.696;2023-04-15T01:47:30;7.20;99.90
29551;DHT22;16488;52.396;10.696;2023-04-15T01:49:56;7.20;99.90
29551;DHT22;16488;52.396;10.696;2023-04-15T01:52:22;7.10;99.90
29551;DHT22;16488;52.396;10.696;2023-04-15T01:54:48;7.10;99.90
29551;DHT22;16488;52.396;10.696;2023-04-15T01:57:13;7.10;99.90
29551;DHT22;16488;52.396;10.696;2023-04-15T01:59:39;7.10;99.90
29551;DHT22;16488;52.396;10.696;2023-04-15T02:02:05;7.10;99.90
29551;DHT22;16488;52.396;10.696;2023-04-15T02:04:31;7.10;99.90
29551;DHT22;16488;52.396;10.696;2023-04-15T02:06:56;7.00;99.90
29551;DHT22;16488;52.396;10.696;2023-04-15T02:09:22;7.00;99.90
29551;DHT22;16488;52.396;10.696;2023-04-15T02:11:49;7.00;99.90
29551;DHT22;16488;52.396;10.696;2023-04-15T02:14:15;7.00;99.90
29551;DHT22;16488;52.396;10.696;2023-04-15T02:16:41;7.00;99.90
29551;DHT22;16488;52.396;10.696;2023-04-15T02:19:07;7.00;99.90
29551;DHT22;16488;52.396;10.696;2023-04-15T02:21:33;7.00;99.90
29551;DHT22;16488;52.396;10.696;2023-04-15T02:23:59;7.00;99.90
29551;DHT22;16488;52.396;10.696;2023-04-15T02:26:26;7.00;99.90
29551;DHT22;16488;52.396;10.696;2023-04-15T02:28:53;7.00;99.90
29551;DHT22;16488;52.396;10.696;2023-04-15T02:31:19;7.00;99.90
29551;DHT22;16488;52.396;10.696;2023-04-15T02:33:46;6.90;99.90
29551;DHT22;16488;52.396;10.696;2023-04-15T02:36:11;7.00;99.90
29551;DHT22;16488;52.396;10.696;2023-04-15T02:38:37;7.00;99.90
29551;DHT22;16488;52.396;10.696;2023-04-15T02:41:05;7.00;99.90
29551;DHT22;16488;52.396;10.696;2023-04-15T02:43:30;7.00;99.90
29551;DHT22;16488;52.396;10.696;2023-04-15T02:45:56;7.00;99.90
29551;DHT22;16488;52.396;10.696;2023-04-15T02:48:21;7.00;99.90
29551;DHT22;16488;52.396;10.696;2023-04-15T02:50:47;7.00;99.90
29551;DHT22;16488;52.396;10.696;2023-04-15T02:53:13;7.10;99.90
29551;DHT22;16488;52.396;10.696;2023-04-15T02:55:39;7.00;99.90
29551;DHT22;16488;52.396;10.696;2023-04-15T02:58:05;7.10;99.90
29551;DHT22;16488;52.396;10.696;2023-04-15T03:00:31;7.10;99.90
29551;DHT22;16488;52.396;10.696;2023-04-15T03:03:02;7.20;99.90
29551;DHT22;16488;52.396;10.696;2023-04-15T03:05:27;7.10;99.90
29551;DHT22;16488;52.396;10.696;2023-04-15T03:07:53;7.10;99.90
29551;DHT22;16488;52.396;10.696;2023-04-15T03:10:19;7.00;99.90
29551;DHT22;16488;52.396;10.696;2023-04-15T03:12:45;7.10;99.90
29551;DHT22;16488;52.396;10.696;2023-04-15T03:15:11;7.00;99.90
29551;DHT22;16488;52.396;10.696;2023-04-15T03:17:37;7.10;99.90
29551;DHT22;16488;52.396;10.696;2023-04-15T03:20:03;7.00;99.90
29551;DHT22;16488;52.396;10.696;2023-04-15T03:22:32;7.00;99.90
29551;DHT22;16488;52.396;10.696;2023-04-15T03:24:58;7.10;99.90
29551;DHT22;16488;52.396;10.696;2023-04-15T03:27:24;7.10;99.90
29551;DHT22;16488;52.396;10.696;2023-04-15T03:29:50;7.20;99.90
29551;DHT22;16488;52.396;10.696;2023-04-15T03:32:16;7.10;99.90
29551;DHT22;16488;52.396;10.696;2023-04-15T03:34:41;7.20;99.90
29551;DHT22;16488;52.396;10.696;2023-04-15T03:37:07;7.20;99.90
29551;DHT22;16488;52.396;10.696;2023-04-15T03:39:33;7.20;99.90
29551;DHT22;16488;52.396;10.696;2023-04-15T03:41:59;7.10;99.90
29551;DHT22;16488;52.396;10.696;2023-04-15T03:44:26;7.20;99.90
29551;DHT22;16488;52.396;10.696;2023-04-15T03:46:52;7.20;99.90
29551;DHT22;16488;52.396;10.696;2023-04-15T03:49:17;7.20;99.90
29551;DHT22;16488;52.396;10.696;2023-04-15T03:51:44;7.20;99.90
29551;DHT22;16488;52.396;10.696;2023-04-15T03:54:09;7.20;99.90
29551;DHT22;16488;52.396;10.696;2023-04-15T03:56:36;7.20;99.90
29551;DHT22;16488;52.396;10.696;2023-04-15T03:59:01;7.10;99.90
29551;DHT22;16488;52.396;10.696;2023-04-15T04:01:27;7.20;99.90
29551;DHT22;16488;52.396;10.696;2023-04-15T04:03:52;7.10;99.90
29551;DHT22;16488;52.396;10.696;2023-04-15T04:06:18;7.20;99.90
29551;DHT22;16488;52.396;10.696;2023-04-15T04:08:44;7.10;99.90
29551;DHT22;16488;52.396;10.696;2023-04-15T04:11:10;7.10;99.90
29551;DHT22;16488;52.396;10.696;2023-04-15T04:13:35;7.10;99.90
29551;DHT22;16488;52.396;10.696;2023-04-15T04:16:01;7.10;99.90
29551;DHT22;16488;52.396;10.696;2023-04-15T04:18:29;7.10;99.90
29551;DHT22;16488;52.396;10.696;2023-04-15T04:20:55;7.10;99.90
29551;DHT22;16488;52.396;10.696;2023-04-15T04:23:21;7.20;99.90
29551;DHT22;16488;52.396;10.696;2023-04-15T04:25:47;7.10;99.90
29551;DHT22;16488;52.396;10.696;2023-04-15T04:28:12;7.20;99.90
29551;DHT22;16488;52.396;10.696;2023-04-15T04:30:38;7.20;99.90
29551;DHT22;16488;52.396;10.696;2023-04-15T04:33:04;7.10;99.90
29551;DHT22;16488;52.396;10.696;2023-04-15T04:35:29;7.20;99.90
29551;DHT22;16488;52.396;10.696;2023-04-15T04:37:55;7.20;99.90
29551;DHT22;16488;52.396;10.696;2023-04-15T04:40:21;7.20;99.90
29551;DHT22;16488;52.396;10.696;2023-04-15T04:42:47;7.10;99.90
29551;DHT22;16488;52.396;10.696;2023-04-15T04:45:12;7.10;99.90
29551;DHT22;16488;52.396;10.696;2023-04-15T04:47:38;7.20;99.90
29551;DHT22;16488;52.396;10.696;2023-04-15T04:50:04;7.10;99.90
29551;DHT22;16488;52.396;10.696;2023-04-15T04:52:30;7.10;99.90
29551;DHT22;16488;52.396;10.696;2023-04-15T04:54:56;7.10;99.90
29551;DHT22;16488;52.396;10.696;2023-04-15T04:57:21;7.10;99.90
29551;DHT22;16488;52.396;10.696;2023-04-15T04:59:47;7.10;99.90
29551;DHT22;16488;52.396;10.696;2023-04-15T05:02:12;7.00;99.90
29551;DHT22;16488;52.396;10.696;2023-04-15T05:04:38;7.00;99.90
29551;DHT22;16488;52.396;10.696;2023-04-15T05:07:04;7.00;99.90
29551;DHT22;16488;52.396;10.696;2023-04-15T05:09:29;7.00;99.90
29551;DHT22;16488;52.396;10.696;2023-04-15T05:11:56;7.00;99.90
29551;DHT22;16488;52.396;10.696;2023-04-15T05:14:22;7.00;99.90
29551;DHT22;16488;52.396;10.696;2023-04-15T05:16:48;7.00;99.90
29551;DHT22;16488;52.396;10.696;2023-04-15T05:19:13;7.00;99.90
29551;DHT22;16488;52.396;10.696;2023-04-15T05:21:39;7.10;99.90
29551;DHT22;16488;52.396;10.696;2023-04-15T05:24:05;7.10;99.90
29551;DHT22;16488;52.396;10.696;2023-04-15T05:26:31;7.10;99.90
29551;DHT22;16488;52.396;10.696;2023-04-15T05:28:56;7.10;99.90
29551;DHT22;16488;52.396;10.696;2023-04-15T05:31:22;7.10;99.90
29551;DHT22;16488;52.396;10.696;2023-04-15T05:33:48;7.20;99.90
29551;DHT22;16488;52.396;10.696;2023-04-15T05:36:13;7.20;99.90
29551;DHT22;16488;52.396;10.696;2023-04-15T05:38:40;7.30;99.90
29551;DHT22;16488;52.396;10.696;2023-04-15T05:41:05;7.30;99.90
29551;DHT22;16488;52.396;10.696;2023-04-15T05:43:31;7.20;99.90
29551;DHT22;16488;52.396;10.696;2023-04-15T05:45:56;7.20;99.90
29551;DHT22;16488;52.396;10.696;2023-04-15T05:48:22;7.20;99.90
29551;DHT22;16488;52.396;10.696;2023-04-15T05:50:48;7.10;99.90
29551;DHT22;16488;52.396;10.696;2023-04-15T05:53:13;7.20;99.90
29551;DHT22;16488;52.396;10.696;2023-04-15T05:55:39;7.20;99.90
29551;DHT22;16488;52.396;10.696;2023-04-15T05:58:05;7.10;99.90
29551;DHT22;16488;52.396;10.696;2023-04-15T06:00:31;7.20;99.90
29551;DHT22;16488;52.396;10.696;2023-04-15T06:02:56;7.20;99.90
29551;DHT22;16488;52.396;10.696;2023-04-15T06:05:23;7.20;99.90
29551;DHT22;16488;52.396;10.696;2023-04-15T06:07:49;7.20;99.90
29551;DHT22;16488;52.396;10.696;2023-04-15T06:10:15;7.20;99.90
29551;DHT22;16488;52.396;10.696;2023-04-15T06:12:41;7.20;99.90
29551;DHT22;16488;52.396;10.696;2023-04-15T06:15:07;7.20;99.90
29551;DHT22;16488;52.396;10.696;2023-04-15T06:17:35;7.20;99.90
29551;DHT22;16488;52.396;10.696;2023-04-15T06:20:01;7.20;99.90
29551;DHT22;16488;52.396;10.696;2023-04-15T06:22:27;7.30;99.90
29551;DHT22;16488;52.396;10.696;2023-04-15T06:24:53;7.30;99.90
29551;DHT22;16488;52.396;10.696;2023-04-15T06:27:19;7.30;99.90
29551;DHT22;16488;52.396;10.696;2023-04-15T06:29:45;7.30;99.90
29551;DHT22;16488;52.396;10.696;2023-04-15T06:32:11;7.30;99.90
29551;DHT22;16488;52.396;10.696;2023-04-15T06:34:37;7.30;99.90
29551;DHT22;16488;52.396;10.696;2023-04-15T06:37:02;7.30;99.90
29551;DHT22;16488;52.396;10.696;2023-04-15T06:39:28;7.30;99.90
29551;DHT22;16488;52.396;10.696;2023-04-15T06:41:54;7.30;99.90
29551;DHT22;16488;52.396;10.696;2023-04-15T06:44:20;7.30;99.90
29551;DHT22;16488;52.396;10.696;2023-04-15T06:46:46;7.30;99.90
29551;DHT22;16488;52.396;10.696;2023-04-15T06:49:12;7.30;99.90
29551;DHT22;16488;52.396;10.696;2023-04-15T06:51:37;7.40;99.90
29551;DHT22;16488;52.396;10.696;2023-04-15T06:54:03;7.40;99.90
29551;DHT22;16488;52.396;10.696;2023-04-15T06:56:31;7.40;99.90
29551;DHT22;16488;52.396;10.696;2023-04-15T06:58:56;7.40;99.90
29551;DHT22;16488;52.396;10.696;2023-04-15T07:01:22;7.40;99.90
29551;DHT22;16488;52.396;10.696;2023-04-15T07:03:48;7.40;99.90
29551;DHT22;16488;52.396;10.696;2023-04-15T07:06:13;7.50;99.90
29551;DHT22;16488;52.396;10.696;2023-04-15T07:08:39;7.60;99.90
29551;DHT22;16488;52.396;10.696;2023-04-15T07:11:05;7.60;99.90
29551;DHT22;16488;52.396;10.696;2023-04-15T07:13:31;7.60;99.90
29551;DHT22;16488;52.396;10.696;2023-04-15T07:15:57;7.60;99.90
29551;DHT22;16488;52.396;10.696;2023-04-15T07:18:22;7.60;99.90
29551;DHT22;16488;52.396;10.696;2023-04-15T07:20:48;7.60;99.90
29551;DHT22;16488;52.396;10.696;2023-04-15T07:23:13;7.70;99.90
29551;DHT22;16488;52.396;10.696;2023-04-15T07:25:39;7.70;99.90
29551;DHT22;16488;52.396;10.696;2023-04-15T07:28:05;7.70;99.90
29551;DHT22;16488;52.396;10.696;2023-04-15T07:30:31;7.70;99.90
29551;DHT22;16488;52.396;10.696;2023-04-15T07:32:57;7.80;99.90
29551;DHT22;16488;52.396;10.696;2023-04-15T07:35:23;7.80;99.90
29551;DHT22;16488;52.396;10.696;2023-04-15T07:37:50;7.80;99.90
29551;DHT22;16488;52.396;10.696;2023-04-15T07:40:15;7.80;99.90
29551;DHT22;16488;52.396;10.696;2023-04-15T07:42:41;7.80;99.90
29551;DHT22;16488;52.396;10.696;2023-04-15T07:45:08;7.90;99.90
29551;DHT22;16488;52.396;10.696;2023-04-15T07:47:34;7.90;99.90
29551;DHT22;16488;52.396;10.696;2023-04-15T07:49:59;7.90;99.90
29551;DHT22;16488;52.396;10.696;2023-04-15T07:52:25;7.90;99.90
29551;DHT22;16488;52.396;10.696;2023-04-15T07:54:50;8.00;99.90
29551;DHT22;16488;52.396;10.696;2023-04-15T07:57:16;8.00;99.90
29551;DHT22;16488;52.396;10.696;2023-04-15T07:59:42;8.00;99.90
29551;DHT22;16488;52.396;10.696;2023-04-15T08:02:08;8.10;99.90
29551;DHT22;16488;52.396;10.696;2023-04-15T08:04:34;8.10;99.90
29551;DHT22;16488;52.396;10.696;2023-04-15T08:06:59;8.10;99.90
29551;DHT22;16488;52.396;10.696;2023-04-15T08:09:25;8.20;99.90
29551;DHT22;16488;52.396;10.696;2023-04-15T08:11:51;8.20;99.90
29551;DHT22;16488;52.396;10.696;2023-04-15T08:14:17;8.20;99.90
29551;DHT22;16488;52.396;10.696;2023-04-15T08:16:43;8.20;99.90
29551;DHT22;16488;52.396;10.696;2023-04-15T08:19:08;8.20;99.90
29551;DHT22;16488;52.396;10.696;2023-04-15T08:21:34;8.30;99.90
29551;DHT22;16488;52.396;10.696;2023-04-15T08:24:00;8.30;99.90
29551;DHT22;16488;52.396;10.696;2023-04-15T08:26:27;8.30;99.90
29551;DHT22;16488;52.396;10.696;2023-04-15T08:28:53;8.40;99.90
29551;DHT22;16488;52.396;10.696;2023-04-15T08:31:18;8.40;99.90
29551;DHT22;16488;52.396;10.696;2023-04-15T08:33:45;8.40;99.90
29551;DHT22;16488;52.396;10.696;2023-04-15T08:36:11;8.50;99.90
29551;DHT22;16488;52.396;10.696;2023-04-15T08:38:38;8.50;99.90
29551;DHT22;16488;52.396;10.696;2023-04-15T08:41:08;8.50;99.90
29551;DHT22;16488;52.396;10.696;2023-04-15T08:43:48;8.60;99.90
29551;DHT22;16488;52.396;10.696;2023-04-15T08:46:16;8.60;99.90
29551;DHT22;16488;52.396;10.696;2023-04-15T08:48:42;8.60;99.90
29551;DHT22;16488;52.396;10.696;2023-04-15T08:51:08;8.60;99.90
29551;DHT22;16488;52.396;10.696;2023-04-15T08:53:34;8.60;99.90
29551;DHT22;16488;52.396;10.696;2023-04-15T08:56:03;8.60;99.90
29551;DHT22;16488;52.396;10.696;2023-04-15T08:58:30;8.60;99.90
29551;DHT22;16488;52.396;10.696;2023-04-15T09:00:56;8.60;99.90
29551;DHT22;16488;52.396;10.696;2023-04-15T09:03:22;8.60;99.90
29551;DHT22;16488;52.396;10.696;2023-04-15T09:05:49;8.60;99.90
29551;DHT22;16488;52.396;10.696;2023-04-15T09:08:15;8.50;99.90
29551;DHT22;16488;52.396;10.696;2023-04-15T09:10:41;8.60;99.90
29551;DHT22;16488;52.396;10.696;2023-04-15T09:13:07;8.60;99.90
29551;DHT22;16488;52.396;10.696;2023-04-15T09:15:37;8.60;99.90
29551;DHT22;16488;52.396;10.696;2023-04-15T09:18:03;8.60;99.90
29551;DHT22;16488;52.396;10.696;2023-04-15T09:20:28;8.60;99.90
29551;DHT22;16488;52.396;10.696;2023-04-15T09:22:54;8.60;99.90
29551;DHT22;16488;52.396;10.696;2023-04-15T09:27:50;8.60;99.90
29551;DHT22;16488;52.396;10.696;2023-04-15T09:30:16;8.60;99.90
29551;DHT22;16488;52.396;10.696;2023-04-15T09:32:53;8.60;99.90
29551;DHT22;16488;52.396;10.696;2023-04-15T09:35:20;8.70;99.90
29551;DHT22;16488;52.396;10.696;2023-04-15T09:37:47;8.70;99.90
29551;DHT22;16488;52.396;10.696;2023-04-15T09:40:12;8.70;99.90
29551;DHT22;16488;52.396;10.696;2023-04-15T09:42:54;8.80;99.90
29551;DHT22;16488;52.396;10.696;2023-04-15T09:45:20;8.80;99.90
29551;DHT22;16488;52.396;10.696;2023-04-15T09:47:46;8.80;99.90
29551;DHT22;16488;52.396;10.696;2023-04-15T09:50:12;8.80;99.90
29551;DHT22;16488;52.396;10.696;2023-04-15T09:52:43;8.80;99.90
29551;DHT22;16488;52.396;10.696;2023-04-15T09:55:09;8.90;99.90
29551;DHT22;16488;52.396;10.696;2023-04-15T09:57:37;8.80;99.90
29551;DHT22;16488;52.396;10.696;2023-04-15T10:00:07;8.80;99.90
29551;DHT22;16488;52.396;10.696;2023-04-15T10:02:36;8.80;99.90
29551;DHT22;16488;52.396;10.696;2023-04-15T10:05:02;8.80;99.90
29551;DHT22;16488;52.396;10.696;2023-04-15T10:07:28;8.80;99.90
29551;DHT22;16488;52.396;10.696;2023-04-15T10:09:54;8.90;99.90
29551;DHT22;16488;52.396;10.696;2023-04-15T10:12:20;9.00;99.90
29551;DHT22;16488;52.396;10.696;2023-04-15T10:14:58;9.00;99.90
29551;DHT22;16488;52.396;10.696;2023-04-15T10:17:26;9.00;99.90
29551;DHT22;16488;52.396;10.696;2023-04-15T10:19:53;9.00;99.90
29551;DHT22;16488;52.396;10.696;2023-04-15T10:22:21;9.00;99.90
29551;DHT22;16488;52.396;10.696;2023-04-15T10:24:48;9.10;99.90
29551;DHT22;16488;52.396;10.696;2023-04-15T10:27:16;9.10;99.90
29551;DHT22;16488;52.396;10.696;2023-04-15T10:29:42;9.10;99.90
29551;DHT22;16488;52.396;10.696;2023-04-15T10:32:08;9.10;99.90
29551;DHT22;16488;52.396;10.696;2023-04-15T10:34:34;9.10;99.90
29551;DHT22;16488;52.396;10.696;2023-04-15T10:37:01;9.00;99.90
29551;DHT22;16488;52.396;10.696;2023-04-15T10:42:13;9.10;99.90
29551;DHT22;16488;52.396;10.696;2023-04-15T10:44:50;9.20;99.90
29551;DHT22;16488;52.396;10.696;2023-04-15T10:47:17;9.20;99.90
29551;DHT22;16488;52.396;10.696;2023-04-15T10:49:48;9.20;99.90
29551;DHT22;16488;52.396;10.696;2023-04-15T10:52:28;9.10;99.90
29551;DHT22;16488;52.396;10.696;2023-04-15T10:55:15;9.10;99.90
29551;DHT22;16488;52.396;10.696;2023-04-15T10:57:43;9.10;99.90
29551;DHT22;16488;52.396;10.696;2023-04-15T11:00:16;9.10;99.90
29551;DHT22;16488;52.396;10.696;2023-04-15T11:05:10;9.20;99.90
29551;DHT22;16488;52.396;10.696;2023-04-15T11:07:55;9.30;99.90
29551;DHT22;16488;52.396;10.696;2023-04-15T11:13:15;9.20;99.90
29551;DHT22;16488;52.396;10.696;2023-04-15T11:15:48;9.20;99.90
29551;DHT22;16488;52.396;10.696;2023-04-15T11:20:49;9.20;99.90
29551;DHT22;16488;52.396;10.696;2023-04-15T11:23:26;9.30;99.90
29551;DHT22;16488;52.396;10.696;2023-04-15T11:25:54;9.30;99.90
29551;DHT22;16488;52.396;10.696;2023-04-15T11:28:20;9.40;99.90
29551;DHT22;16488;52.396;10.696;2023-04-15T11:30:45;9.40;99.90
29551;DHT22;16488;52.396;10.696;2023-04-15T11:33:11;9.40;99.90
29551;DHT22;16488;52.396;10.696;2023-04-15T11:35:40;9.50;99.90
29551;DHT22;16488;52.396;10.696;2023-04-15T11:38:11;9.50;99.90
29551;DHT22;16488;52.396;10.696;2023-04-15T11:40:37;9.60;99.90
29551;DHT22;16488;52.396;10.696;2023-04-15T11:43:06;9.60;99.90
29551;DHT22;16488;52.396;10.696;2023-04-15T11:45:32;9.60;99.90
29551;DHT22;16488;52.396;10.696;2023-04-15T11:48:08;9.70;99.90
29551;DHT22;16488;52.396;10.696;2023-04-15T11:50:34;9.70;99.90
29551;DHT22;16488;52.396;10.696;2023-04-15T11:53:03;9.70;99.90
29551;DHT22;16488;52.396;10.696;2023-04-15T11:55:29;9.70;99.90
29551;DHT22;16488;52.396;10.696;2023-04-15T12:00:38;9.60;99.90
29551;DHT22;16488;52.396;10.696;2023-04-15T12:03:17;9.70;99.90
29551;DHT22;16488;52.396;10.696;2023-04-15T12:06:10;9.70;99.90
29551;DHT22;16488;52.396;10.696;2023-04-15T12:08:58;9.80;99.90
29551;DHT22;16488;52.396;10.696;2023-04-15T12:14:08;9.80;99.90
29551;DHT22;16488;52.396;10.696;2023-04-15T12:16:40;9.90;99.90
29551;DHT22;16488;52.396;10.696;2023-04-15T12:19:10;10.00;99.90
29551;DHT22;16488;52.396;10.696;2023-04-15T12:21:38;10.00;99.90
29551;DHT22;16488;52.396;10.696;2023-04-15T12:24:07;10.00;99.90
29551;DHT22;16488;52.396;10.696;2023-04-15T12:26:35;10.10;99.90
29551;DHT22;16488;52.396;10.696;2023-04-15T12:29:05;10.20;99.90
29551;DHT22;16488;52.396;10.696;2023-04-15T12:31:32;10.30;99.90
29551;DHT22;16488;52.396;10.696;2023-04-15T12:33:58;10.30;99.90
29551;DHT22;16488;52.396;10.696;2023-04-15T12:36:25;10.30;99.90
29551;DHT22;16488;52.396;10.696;2023-04-15T12:38:51;10.40;99.90
29551;DHT22;16488;52.396;10.696;2023-04-15T12:41:16;10.40;99.90
29551;DHT22;16488;52.396;10.696;2023-04-15T12:43:45;10.50;99.90
29551;DHT22;16488;52.396;10.696;2023-04-15T12:46:13;10.40;99.90
29551;DHT22;16488;52.396;10.696;2023-04-15T12:48:39;10.30;99.90
29551;DHT22;16488;52.396;10.696;2023-04-15T12:51:05;10.30;99.90
29551;DHT22;16488;52.396;10.696;2023-04-15T12:53:31;10.20;99.90
29551;DHT22;16488;52.396;10.696;2023-04-15T12:55:57;10.30;99.90
29551;DHT22;16488;52.396;10.696;2023-04-15T12:58:22;10.20;99.90
29551;DHT22;16488;52.396;10.696;2023-04-15T13:00:48;10.20;99.90
29551;DHT22;16488;52.396;10.696;2023-04-15T13:03:15;10.30;99.90
29551;DHT22;16488;52.396;10.696;2023-04-15T13:05:40;10.40;99.90
29551;DHT22;16488;52.396;10.696;2023-04-15T13:08:06;10.40;99.90
29551;DHT22;16488;52.396;10.696;2023-04-15T13:10:32;10.50;99.90
29551;DHT22;16488;52.396;10.696;2023-04-15T13:12:58;10.50;99.90
29551;DHT22;16488;52.396;10.696;2023-04-15T13:15:24;10.60;99.90
29551;DHT22;16488;52.396;10.696;2023-04-15T13:17:50;10.60;99.90
29551;DHT22;16488;52.396;10.696;2023-04-15T13:20:16;10.70;99.90
29551;DHT22;16488;52.396;10.696;2023-04-15T13:22:42;10.70;99.90
29551;DHT22;16488;52.396;10.696;2023-04-15T13:25:07;10.80;99.90
29551;DHT22;16488;52.396;10.696;2023-04-15T13:27:34;10.90;99.90
29551;DHT22;16488;52.396;10.696;2023-04-15T13:29:59;11.00;99.90
29551;DHT22;16488;52.396;10.696;2023-04-15T13:32:25;11.00;99.90
29551;DHT22;16488;52.396;10.696;2023-04-15T13:34:51;11.00;99.90
29551;DHT22;16488;52.396;10.696;2023-04-15T13:37:16;11.10;99.90
29551;DHT22;16488;52.396;10.696;2023-04-15T13:39:42;11.20;99.90
29551;DHT22;16488;52.396;10.696;2023-04-15T13:42:08;11.20;99.90
29551;DHT22;16488;52.396;10.696;2023-04-15T13:44:34;11.10;99.90
29551;DHT22;16488;52.396;10.696;2023-04-15T13:47:00;11.10;99.90
29551;DHT22;16488;52.396;10.696;2023-04-15T13:49:25;11.10;99.90
29551;DHT22;16488;52.396;10.696;2023-04-15T13:51:51;11.10;99.90
29551;DHT22;16488;52.396;10.696;2023-04-15T13:54:16;11.00;99.90
29551;DHT22;16488;52.396;10.696;2023-04-15T13:56:42;11.00;99.90
29551;DHT22;16488;52.396;10.696;2023-04-15T13:59:08;11.00;99.90
29551;DHT22;16488;52.396;10.696;2023-04-15T14:01:33;11.00;99.90
29551;DHT22;16488;52.396;10.696;2023-04-15T14:03:59;11.00;99.90
29551;DHT22;16488;52.396;10.696;2023-04-15T14:06:25;11.00;99.90
29551;DHT22;16488;52.396;10.696;2023-04-15T14:08:51;11.00;99.90
29551;DHT22;16488;52.396;10.696;2023-04-15T14:11:17;11.00;99.90
29551;DHT22;16488;52.396;10.696;2023-04-15T14:13:42;11.00;99.90
29551;DHT22;16488;52.396;10.696;2023-04-15T14:16:08;11.00;99.90
29551;DHT22;16488;52.396;10.696;2023-04-15T14:18:34;11.00;99.90
29551;DHT22;16488;52.396;10.696;2023-04-15T14:20:59;11.10;99.90
29551;DHT22;16488;52.396;10.696;2023-04-15T14:23:25;11.10;99.90
29551;DHT22;16488;52.396;10.696;2023-04-15T14:25:51;11.10;99.90
29551;DHT22;16488;52.396;10.696;2023-04-15T14:28:17;11.20;99.90
29551;DHT22;16488;52.396;10.696;2023-04-15T14:30:43;11.20;99.90
29551;DHT22;16488;52.396;10.696;2023-04-15T14:33:08;11.20;99.90
29551;DHT22;16488;52.396;10.696;2023-04-15T14:35:34;11.20;99.90
29551;DHT22;16488;52.396;10.696;2023-04-15T14:38:00;11.30;99.90
29551;DHT22;16488;52.396;10.696;2023-04-15T14:40:25;11.20;99.90
29551;DHT22;16488;52.396;10.696;2023-04-15T14:42:51;11.20;99.90
29551;DHT22;16488;52.396;10.696;2023-04-15T14:45:16;11.20;99.90
29551;DHT22;16488;52.396;10.696;2023-04-15T14:47:42;11.20;99.90
29551;DHT22;16488;52.396;10.696;2023-04-15T14:50:08;11.30;99.90
29551;DHT22;16488;52.396;10.696;2023-04-15T14:52:34;11.30;99.90
29551;DHT22;16488;52.396;10.696;2023-04-15T14:55:14;11.30;99.90
29551;DHT22;16488;52.396;10.696;2023-04-15T14:57:40;11.40;99.90
29551;DHT22;16488;52.396;10.696;2023-04-15T15:00:08;11.50;99.90
29551;DHT22;16488;52.396;10.696;2023-04-15T15:02:34;11.40;99.90
29551;DHT22;16488;52.396;10.696;2023-04-15T15:05:01;11.40;99.90
29551;DHT22;16488;52.396;10.696;2023-04-15T15:07:26;11.50;99.90
29551;DHT22;16488;52.396;10.696;2023-04-15T15:09:53;11.50;99.90
29551;DHT22;16488;52.396;10.696;2023-04-15T15:12:19;11.50;99.90
29551;DHT22;16488;52.396;10.696;2023-04-15T15:14:46;11.50;99.90
29551;DHT22;16488;52.396;10.696;2023-04-15T15:17:12;11.50;99.90
29551;DHT22;16488;52.396;10.696;2023-04-15T15:19:38;11.60;99.90
29551;DHT22;16488;52.396;10.696;2023-04-15T15:22:03;11.60;99.90
29551;DHT22;16488;52.396;10.696;2023-04-15T15:24:29;11.60;99.90
29551;DHT22;16488;52.396;10.696;2023-04-15T15:26:55;11.50;99.90
29551;DHT22;16488;52.396;10.696;2023-04-15T15:29:22;11.50;99.90
29551;DHT22;16488;52.396;10.696;2023-04-15T15:31:47;11.50;99.90
29551;DHT22;16488;52.396;10.696;2023-04-15T15:34:13;11.50;99.90
29551;DHT22;16488;52.396;10.696;2023-04-15T15:36:38;11.50;99.90
29551;DHT22;16488;52.396;10.696;2023-04-15T15:39:04;11.50;99.90
29551;DHT22;16488;52.396;10.696;2023-04-15T15:41:30;11.60;99.90